Terminal Aerodrome Forecast
Issued by NWS Sterling, VA

Current Version | Previous Version | Graphics & Text | Print | Product List | Glossary On
Versions: 1 2 3 4 5 6 7 8 9 10 11 12 13 14
000
FTUS41 KLWX 131723
TAFMRB
TAF
KMRB 131723Z 1318/1418 33011KT P6SM SKC
     FM132300 36007KT P6SM OVC140
     FM140200 VRB03KT P6SM OVC120
     FM141100 00000KT 6SM -FZRASNPL OVC030
     FM141200 00000KT 3SM -FZRASNPL OVC015
     FM141500 00000KT 1SM -FZRAPL OVC003
     FM141700 00000KT 1SM -FZRA OVC003=

USA.gov is the U.S. government's official web portal to all federal, state and local government web resources and services.